Terminal Aerodrome Forecast
Issued by NWS Sioux Falls, SD

Home | Current Version | Previous Version | Text Only | Print | Product List | Glossary On
Versions: 1 2 3 4 5 6 7 8 9 10 11 12 13 14 15 16 17
765
FTUS43 KFSD 191348 AAA
TAFHON
TAF AMD
KHON 191348Z 1914/2012 36017G25KT 6SM -SN BKN010 OVC080
     FM192000 01014G22KT 3SM -SN OVC025
     FM192300 01013G18KT 2SM -SN OVC015
     FM200200 01013G18KT 1 1/2SM -SN OVC015
     FM201000 34012G18KT 1SM -SN OVC010=

USA.gov is the U.S. government's official web portal to all federal, state and local government web resources and services.